This is the latest recevied weather packets stored in our database for station/object HB9FHL-13. If no packets are shown the sender has not sent any weather packets the latest 10 day(s).
| Time | Temp. | Humidity | Pressure | Rain* | Wind** | Luminosity | Snow |
|---|---|---|---|---|---|---|---|
| 1788578258 | 22.22° C | - | 1021.2 hPa | 0 mm | - | - | - |
| 1788577958 | 22.22° C | - | 1025.5 hPa | 0 mm | - | - | - |
| 1788577658 | 21.67° C | - | 1020.5 hPa | 0 mm | - | - | - |
| 1788577394 | 22.22° C | - | 1024.2 hPa | 0 mm | - | - | - |
| 1788577357 | 22.22° C | - | 1024.2 hPa | 0 mm | - | - | - |
| 1788577057 | 22.22° C | - | 1023.4 hPa | 0 mm | - | - | - |
| 1788576756 | 22.22° C | - | 1022.2 hPa | 0 mm | - | - | - |
| 1788576456 | 22.78° C | - | 1023 hPa | 0 mm | - | - | - |
| 1788576155 | 23.33° C | - | 1023 hPa | 0 mm | - | - | - |
| 1788575855 | 22.22° C | - | 1021.6 hPa | 0 mm | - | - | - |
| 1788575554 | 23.33° C | - | 1023.1 hPa | 0 mm | - | - | - |
| 1788575254 | 23.33° C | - | 1022.3 hPa | 0 mm | - | - | - |
| 1788574953 | 22.78° C | - | 1020.2 hPa | 0 mm | - | - | - |
| 1788574653 | 23.89° C | - | 1025.1 hPa | 0 mm | - | - | - |
| 1788574352 | 23.33° C | - | 1022.3 hPa | 0 mm | - | - | - |
| 1788574052 | 23.89° C | - | 1019.7 hPa | 0 mm | - | - | - |
| 1788573789 | 23.89° C | - | 1022.6 hPa | 0 mm | - | - | - |
| 1788573751 | 23.89° C | - | 1022.6 hPa | 0 mm | - | - | - |
| 1788573451 | 22.78° C | - | 1018.9 hPa | 0 mm | - | - | - |
| 1788573150 | 24.44° C | - | 1025.2 hPa | 0 mm | - | - | - |
| 1788572850 | 23.89° C | - | 1025 hPa | 0 mm | - | - | - |
| 1788572549 | 23.33° C | - | 1023.7 hPa | 0 mm | - | - | - |
| 1788572249 | 23.89° C | - | 1021.6 hPa | 0 mm | - | - | - |
| 1788571948 | 23.89° C | - | 1022 hPa | 0 mm | - | - | - |
| 1788571648 | 23.89° C | - | 1021.1 hPa | 0 mm | - | - | - |
* Rain since midnight (hover to see other rain measurements)
** Current wind speed in m/s (hover to see current wind gust speed)